Time;durP1;ratioP1;P1;durP2;ratioP2;P2;SDS_P1;SDS_P2;PMS_P1;PMS_P2;Temp;Humidity;BMP_temperature;BMP_pressure;BME280_temperature;BME280_humidity;BME280_pressure;Samples;Min_cycle;Max_cycle;Signal;HPM_P1;HPM_P2
2023/01/23 00:01:06;;;;;;;54.65;50.38;;;;;;;8.33;100.00;102148.81;5006711;28;20054;-81
2023/01/23 00:03:33;;;;;;;58.00;53.38;;;;;;;8.21;100.00;102154.38;5006387;28;20054;-81
2023/01/23 00:06:01;;;;;;;52.60;48.53;;;;;;;8.41;100.00;102152.38;5008097;28;20046;-81
2023/01/23 00:08:29;;;;;;;56.03;51.90;;;;;;;8.15;100.00;102159.47;5005315;28;20050;-81
2023/01/23 00:10:55;;;;;;;52.08;48.15;;;;;;;8.11;100.00;102158.09;5005538;28;20073;-81
2023/01/23 00:13:24;;;;;;;58.00;53.70;;;;;;;8.14;100.00;102166.56;5005814;28;20057;-80
2023/01/23 00:15:51;;;;;;;58.10;53.47;;;;;;;8.13;100.00;102164.06;5003779;28;20054;-81
2023/01/23 00:18:17;;;;;;;56.10;51.42;;;;;;;8.11;100.00;102171.31;5005131;28;20048;-81
2023/01/23 00:20:44;;;;;;;58.42;54.22;;;;;;;8.15;100.00;102164.75;5005404;28;20046;-81
2023/01/23 00:23:11;;;;;;;51.83;48.08;;;;;;;8.16;100.00;102177.81;5006267;28;20066;-81
2023/01/23 00:25:38;;;;;;;53.90;49.90;;;;;;;8.28;100.00;102173.09;5006484;28;20043;-81
2023/01/23 00:28:05;;;;;;;52.80;48.90;;;;;;;8.29;100.00;102181.88;5005416;28;20487;-81
2023/01/23 00:30:33;;;;;;;63.80;59.05;;;;;;;8.22;100.00;102185.13;5005994;28;20050;-81
2023/01/23 00:33:00;;;;;;;63.25;58.63;;;;;;;8.25;100.00;102182.19;5005070;28;20105;-80
2023/01/23 00:35:27;;;;;;;59.95;55.33;;;;;;;8.13;100.00;102179.94;5005125;28;20484;-81
2023/01/23 00:37:54;;;;;;;56.40;51.53;;;;;;;8.15;100.00;102189.41;5004585;28;20065;-81
2023/01/23 00:40:20;;;;;;;61.35;56.80;;;;;;;8.55;100.00;102189.84;5005400;28;20046;-81
2023/01/23 00:42:47;;;;;;;60.40;54.97;;;;;;;7.92;100.00;102189.03;5005862;28;20479;-81
2023/01/23 00:45:14;;;;;;;56.13;51.13;;;;;;;7.79;100.00;102193.88;5004882;28;20081;-81
2023/01/23 00:47:42;;;;;;;55.47;50.42;;;;;;;7.72;100.00;102195.50;5004609;28;20050;-81
2023/01/23 00:50:10;;;;;;;58.35;52.63;;;;;;;7.67;100.00;102193.28;5004764;28;20158;-81
2023/01/23 00:52:37;;;;;;;57.67;52.17;;;;;;;7.78;100.00;102202.81;5007926;28;20042;-81
2023/01/23 00:55:05;;;;;;;56.95;51.65;;;;;;;7.94;100.00;102196.84;5005350;28;20120;-81
2023/01/23 00:57:32;;;;;;;60.30;54.80;;;;;;;8.06;100.00;102206.19;5002577;28;20050;-81
2023/01/23 00:59:58;;;;;;;59.58;54.22;;;;;;;7.97;100.00;102201.81;4998062;28;20050;-81
2023/01/23 01:02:25;;;;;;;58.35;52.15;;;;;;;7.58;100.00;102196.81;4997629;28;20074;-81
2023/01/23 01:04:53;;;;;;;58.65;52.83;;;;;;;7.62;100.00;102200.00;4999115;28;20057;-81
2023/01/23 01:07:20;;;;;;;58.10;52.33;;;;;;;7.56;100.00;102198.78;5002350;28;20125;-81
2023/01/23 01:09:47;;;;;;;60.88;54.97;;;;;;;7.62;100.00;102198.19;5000975;28;20466;-81
2023/01/23 01:12:14;;;;;;;68.57;54.53;;;;;;;7.54;100.00;102198.13;5001112;28;20078;-81
2023/01/23 01:14:41;;;;;;;63.95;58.05;;;;;;;7.91;100.00;102202.44;5002192;28;20042;-81
2023/01/23 01:17:07;;;;;;;68.70;62.65;;;;;;;7.76;100.00;102212.72;5001129;28;20081;-81
2023/01/23 01:19:34;;;;;;;62.95;57.00;;;;;;;7.53;100.00;102197.28;5000691;28;20049;-81
2023/01/23 01:22:02;;;;;;;56.97;51.85;;;;;;;7.78;100.00;102210.75;4996751;28;20051;-81
2023/01/23 01:24:29;;;;;;;54.53;49.65;;;;;;;7.44;100.00;102202.63;4994776;28;20137;-81
2023/01/23 01:26:56;;;;;;;58.33;52.67;;;;;;;7.77;100.00;102217.00;4998032;28;20117;-81
2023/01/23 01:29:23;;;;;;;56.67;51.67;;;;;;;7.79;100.00;102204.47;5003896;28;20078;-81
2023/01/23 01:31:49;;;;;;;66.40;60.78;;;;;;;7.52;100.00;102200.91;5001652;28;20495;-81
2023/01/23 01:34:16;;;;;;;60.00;54.30;;;;;;;7.66;100.00;102210.13;5000361;28;20046;-81
2023/01/23 01:36:43;;;;;;;59.75;54.35;;;;;;;7.79;100.00;102205.28;4999438;28;20190;-81
2023/01/23 01:39:11;;;;;;;52.75;48.10;;;;;;;7.52;100.00;102200.06;4995554;28;20046;-81
2023/01/23 01:41:38;;;;;;;60.05;54.60;;;;;;;7.28;100.00;102198.81;4998549;28;20405;-81
2023/01/23 01:44:04;;;;;;;55.45;50.33;;;;;;;7.40;100.00;102198.63;4999149;28;20054;-81
2023/01/23 01:46:32;;;;;;;59.67;54.35;;;;;;;7.60;100.00;102194.88;4999434;28;20058;-81
2023/01/23 01:49:07;;;;;;;58.00;52.95;;;;;;;7.26;100.00;102189.38;5000171;28;20075;-81
2023/01/23 01:51:37;;;;;;;60.90;55.15;;;;;;;7.39;100.00;102192.50;4999950;28;20050;-81
2023/01/23 01:54:09;;;;;;;56.92;51.72;;;;;;;7.61;100.00;102185.94;4997304;28;20081;-81
2023/01/23 01:56:45;;;;;;;55.53;50.45;;;;;;;7.36;100.00;102194.63;4998194;28;20094;-81
2023/01/23 01:59:14;;;;;;;57.35;52.40;;;;;;;7.79;100.00;102200.00;5005024;28;20524;-81
2023/01/23 02:01:45;;;;;;;61.55;55.78;;;;;;;7.75;100.00;102201.31;5002120;28;20057;-81
2023/01/23 02:04:12;;;;;;;60.00;54.65;;;;;;;7.72;100.00;102195.50;5001738;28;20042;-81
2023/01/23 02:06:38;;;;;;;59.88;54.78;;;;;;;7.52;100.00;102185.03;5005029;28;20051;-81
2023/01/23 02:09:10;;;;;;;58.45;53.55;;;;;;;7.45;100.00;102191.09;5004663;28;20042;-81
2023/01/23 02:11:38;;;;;;;56.20;51.50;;;;;;;7.67;100.00;102195.91;5000736;28;20074;-81
2023/01/23 02:14:06;;;;;;;57.28;52.38;;;;;;;6.98;100.00;102204.41;5001024;28;20121;-81
2023/01/23 02:16:39;;;;;;;63.70;58.50;;;;;;;7.28;100.00;102206.75;4999726;28;20230;-81
2023/01/23 02:19:16;;;;;;;53.63;48.30;;;;;;;7.12;100.00;102214.50;5001380;28;20447;-81
2023/01/23 02:21:44;;;;;;;58.47;53.30;;;;;;;7.34;100.00;102205.31;4999519;28;20051;-81
2023/01/23 02:24:20;;;;;;;62.20;56.00;;;;;;;7.21;100.00;102203.03;5003797;28;20054;-81
2023/01/23 02:26:48;;;;;;;58.58;53.17;;;;;;;7.41;100.00;102208.19;5004695;28;20479;-81
2023/01/23 02:29:18;;;;;;;60.28;55.05;;;;;;;7.54;100.00;102204.22;5006074;28;20046;-81
2023/01/23 02:31:44;;;;;;;58.13;52.72;;;;;;;7.57;100.00;102203.09;4999907;28;20046;-81
2023/01/23 02:34:13;;;;;;;55.42;51.08;;;;;;;8.51;100.00;102215.00;4999840;28;20051;-81
2023/01/23 02:36:44;;;;;;;62.67;57.08;;;;;;;7.57;100.00;102224.25;5002644;28;20046;-81
2023/01/23 02:39:13;;;;;;;57.95;52.40;;;;;;;6.91;100.00;102224.47;5001788;28;20092;-81
2023/01/23 02:41:41;;;;;;;63.78;58.58;;;;;;;7.67;100.00;102227.66;5000986;28;20046;-81
2023/01/23 02:44:14;;;;;;;58.35;52.95;;;;;;;7.60;100.00;102234.53;5002243;28;20055;-81
2023/01/23 02:46:41;;;;;;;63.40;57.05;;;;;;;7.46;100.00;102238.50;4998547;28;20066;-81
2023/01/23 02:49:08;;;;;;;60.55;55.08;;;;;;;7.09;100.00;102243.84;5001874;28;20046;-81
2023/01/23 02:51:34;;;;;;;62.08;55.92;;;;;;;6.98;100.00;102247.50;5004704;28;20058;-81
2023/01/23 02:54:01;;;;;;;58.08;52.95;;;;;;;7.05;100.00;102251.25;5006177;28;20112;-81
2023/01/23 02:56:28;;;;;;;56.30;51.05;;;;;;;7.21;100.00;102245.31;4997194;28;20110;-81
2023/01/23 03:01:41;;;;;;;60.30;54.72;;;;;;;6.79;100.00;102242.28;5021934;23;20056;-80
2023/01/23 03:04:16;;;;;;;57.55;51.78;;;;;;;6.90;100.00;102242.13;5021367;28;20050;-80
2023/01/23 03:06:57;;;;;;;57.40;51.90;;;;;;;6.73;100.00;102256.06;5020715;28;20045;-79
2023/01/23 03:09:47;;;;;;;54.90;49.50;;;;;;;6.89;100.00;102256.28;5019328;28;20060;-83
2023/01/23 03:12:25;;;;;;;58.15;52.38;;;;;;;6.60;100.00;102256.38;5021599;28;20139;-79
2023/01/23 03:14:53;;;;;;;54.92;49.30;;;;;;;6.68;100.00;102264.41;5017069;28;20049;-80
2023/01/23 03:20:43;;;;;;;58.70;52.72;;;;;;;6.69;100.00;102254.66;5015430;28;20032;-81
2023/01/23 03:23:15;;;;;;;52.55;46.90;;;;;;;6.52;100.00;102269.44;5013765;28;20042;-80
2023/01/23 03:25:43;;;;;;;61.05;55.47;;;;;;;6.78;100.00;102270.50;5013998;28;20048;-80
2023/01/23 03:31:28;;;;;;;55.35;49.72;;;;;;;6.56;100.00;102261.09;5013258;28;20072;-82
2023/01/23 03:34:04;;;;;;;55.22;49.60;;;;;;;6.86;100.00;102251.28;5013107;28;20567;-81
2023/01/23 03:36:53;;;;;;;56.58;51.33;;;;;;;6.47;100.00;102263.75;5013836;28;20120;-80
2023/01/23 03:42:12;;;;;;;55.22;49.67;;;;;;;6.40;100.00;102274.88;5013042;28;20168;-81
2023/01/23 03:44:46;;;;;;;53.65;47.78;;;;;;;6.52;100.00;102274.72;5012548;28;20045;-82
2023/01/23 03:47:20;;;;;;;55.35;50.38;;;;;;;6.47;100.00;102275.13;5012893;28;20108;-81
2023/01/23 03:50:07;;;;;;;52.25;47.03;;;;;;;6.41;100.00;102273.91;5011691;28;20501;-81
2023/01/23 03:52:37;;;;;;;53.83;48.10;;;;;;;6.52;100.00;102274.72;5012752;28;20125;-81
2023/01/23 03:55:24;;;;;;;54.20;48.33;;;;;;;6.51;100.00;102276.53;5013649;28;20490;-81
2023/01/23 03:58:05;;;;;;;51.33;46.10;;;;;;;6.43;100.00;102279.88;5013016;28;20104;-81
2023/01/23 04:00:32;;;;;;;55.03;49.78;;;;;;;6.45;100.00;102277.09;5011741;28;20104;-81
2023/01/23 04:03:04;;;;;;;58.45;52.75;;;;;;;6.78;100.00;102277.63;5013072;28;20042;-81
2023/01/23 04:06:02;;;;;;;55.92;50.25;;;;;;;6.57;100.00;102283.91;5013204;28;20045;-81
2023/01/23 04:08:43;;;;;;;56.03;50.58;;;;;;;6.82;100.00;102276.34;5011913;28;20088;-80
2023/01/23 04:11:20;;;;;;;60.00;54.35;;;;;;;6.60;100.00;102273.06;5012184;28;20049;-81
2023/01/23 04:14:00;;;;;;;63.05;57.15;;;;;;;6.56;100.00;102279.56;5013622;28;20046;-82
2023/01/23 04:16:27;;;;;;;57.83;52.63;;;;;;;7.08;100.00;102269.44;5012216;28;20050;-82
2023/01/23 04:18:57;;;;;;;61.88;56.33;;;;;;;6.42;100.00;102275.56;5013370;28;20062;-82
2023/01/23 04:21:58;;;;;;;60.85;55.10;;;;;;;6.68;100.00;102284.69;5012860;28;20038;-82
2023/01/23 04:24:39;;;;;;;59.55;53.95;;;;;;;6.57;100.00;102288.34;5010152;28;20472;-80
2023/01/23 04:27:12;;;;;;;57.20;51.20;;;;;;;6.48;100.00;102289.19;5011935;28;20104;-81
2023/01/23 04:29:57;;;;;;;58.58;53.15;;;;;;;6.48;100.00;102297.13;5010806;28;20046;-81
2023/01/23 04:32:36;;;;;;;60.67;54.97;;;;;;;6.67;100.00;102293.59;5012429;28;20041;-81
2023/01/23 04:35:15;;;;;;;67.85;61.60;;;;;;;6.77;100.00;102294.41;5012878;28;20046;-82
2023/01/23 04:37:52;;;;;;;67.22;61.08;;;;;;;6.46;100.00;102304.34;5013074;28;20050;-81
2023/01/23 04:40:27;;;;;;;66.78;60.33;;;;;;;6.24;100.00;102314.19;5011294;28;20429;-81
2023/01/23 04:43:07;;;;;;;55.88;50.15;;;;;;;6.52;100.00;102311.69;5010700;28;20111;-81
2023/01/23 04:45:45;;;;;;;61.05;55.33;;;;;;;6.25;100.00;102317.66;5012841;28;20056;-81
2023/01/23 04:48:19;;;;;;;62.42;56.63;;;;;;;6.44;100.00;102320.28;5011557;28;20050;-81
2023/01/23 04:50:57;;;;;;;66.20;59.45;;;;;;;6.36;100.00;102321.00;5006656;28;20100;-80
2023/01/23 04:53:24;;;;;;;58.75;52.88;;;;;;;6.17;100.00;102313.06;5010296;28;20054;-81
2023/01/23 04:56:26;;;;;;;54.08;48.80;;;;;;;6.53;100.00;102323.91;5010194;28;20042;-82
2023/01/23 04:58:53;;;;;;;59.95;53.70;;;;;;;6.59;100.00;102320.69;5011571;28;20049;-80
2023/01/23 05:01:22;;;;;;;60.42;54.45;;;;;;;6.28;100.00;102327.94;5010998;28;20052;-83
2023/01/23 05:04:23;;;;;;;64.22;58.40;;;;;;;6.61;100.00;102326.69;5011802;28;20053;-80
2023/01/23 05:07:04;;;;;;;56.97;51.03;;;;;;;6.23;100.00;102330.97;5012278;28;20046;-80
2023/01/23 05:09:43;;;;;;;55.20;49.83;;;;;;;6.19;100.00;102335.72;5012370;28;20544;-81
2023/01/23 05:12:23;;;;;;;55.05;49.35;;;;;;;6.18;100.00;102344.59;5010501;28;20046;-81
2023/01/23 05:14:50;;;;;;;66.57;60.60;;;;;;;6.14;100.00;102342.38;4991760;28;20559;-81
2023/01/23 05:17:39;;;;;;;61.55;55.13;;;;;;;6.14;100.00;102345.00;5015708;28;20056;-81
2023/01/23 05:20:22;;;;;;;55.13;49.58;;;;;;;6.12;100.00;102336.41;5010970;28;20057;-81
2023/01/23 05:23:00;;;;;;;54.55;49.05;;;;;;;6.27;100.00;102344.75;5012123;28;20045;-81
2023/01/23 05:25:37;;;;;;;58.03;51.45;;;;;;;6.10;100.00;102340.97;5010438;28;20406;-81
2023/01/23 05:28:20;;;;;;;57.10;50.20;;;;;;;6.15;100.00;102349.31;5011621;28;20057;-80
2023/01/23 05:30:55;;;;;;;56.78;48.70;;;;;;;6.14;100.00;102345.84;5011301;28;20042;-81
2023/01/23 05:33:22;;;;;;;52.00;46.90;;;;;;;6.07;100.00;102354.44;5012012;28;20496;-81
2023/01/23 05:35:49;;;;;;;51.60;46.67;;;;;;;6.15;100.00;102359.88;5011653;28;20050;-81
2023/01/23 05:38:51;;;;;;;49.47;44.63;;;;;;;6.07;100.00;102357.91;5012028;28;20061;-81
2023/01/23 05:41:33;;;;;;;50.60;45.78;;;;;;;6.38;100.00;102360.44;5011535;28;20045;-81
2023/01/23 05:44:15;;;;;;;48.00;43.60;;;;;;;6.10;100.00;102368.19;5010982;28;20100;-82
2023/01/23 05:46:43;;;;;;;49.47;44.55;;;;;;;6.08;100.00;102370.16;5012125;28;20045;-81
2023/01/23 05:49:30;;;;;;;51.80;46.47;;;;;;;6.02;100.00;102373.34;5011516;28;20180;-81
2023/01/23 05:52:12;;;;;;;52.15;47.25;;;;;;;6.28;100.00;102371.00;4992836;28;20105;-81
2023/01/23 05:54:51;;;;;;;58.30;51.65;;;;;;;5.94;100.00;102383.72;5011244;28;20045;-81
2023/01/23 05:57:27;;;;;;;49.88;44.65;;;;;;;6.20;100.00;102384.03;5011447;28;20045;-81
2023/01/23 06:00:01;;;;;;;52.17;46.75;;;;;;;6.07;100.00;102396.66;5012306;28;20050;-81
2023/01/23 06:02:49;;;;;;;51.28;45.72;;;;;;;6.11;100.00;102403.31;5004397;28;20485;-81
2023/01/23 06:05:25;;;;;;;57.63;45.50;;;;;;;5.88;100.00;102414.06;5002218;28;20116;-80
2023/01/23 06:08:07;;;;;;;52.88;46.15;;;;;;;5.65;100.00;102421.31;5020805;28;20045;-80
2023/01/23 06:10:58;;;;;;;49.17;43.97;;;;;;;5.71;100.00;102414.69;5011642;28;20092;-81
2023/01/23 06:13:26;;;;;;;51.92;46.35;;;;;;;5.69;100.00;102404.28;4994529;28;20107;-80
2023/01/23 06:16:08;;;;;;;54.15;46.58;;;;;;;5.64;100.00;102429.38;5015044;28;20088;-81
2023/01/23 06:18:43;;;;;;;49.88;44.45;;;;;;;5.72;100.00;102434.81;4993756;28;20514;-80
2023/01/23 06:21:21;;;;;;;55.35;48.17;;;;;;;5.67;100.00;102437.00;5011881;28;20054;-80
2023/01/23 06:23:54;;;;;;;54.90;45.33;;;;;;;5.68;100.00;102436.88;5012219;28;20050;-81
2023/01/23 06:26:42;;;;;;;52.67;45.05;;;;;;;5.69;100.00;102446.47;5011630;28;20104;-80
2023/01/23 06:29:19;;;;;;;47.92;43.03;;;;;;;5.66;100.00;102448.53;5008103;28;20045;-80
2023/01/23 06:32:02;;;;;;;58.60;47.97;;;;;;;5.66;100.00;102456.44;5011274;28;20058;-80
2023/01/23 06:34:37;;;;;;;50.30;45.17;;;;;;;5.68;100.00;102457.97;5010725;28;20057;-80
2023/01/23 06:37:20;;;;;;;50.03;45.40;;;;;;;5.65;100.00;102460.84;5012225;28;20096;-80
2023/01/23 06:39:57;;;;;;;53.58;47.10;;;;;;;5.69;100.00;102464.91;5008010;28;20107;-80
2023/01/23 06:42:38;;;;;;;48.33;43.05;;;;;;;5.97;100.00;102465.22;5011592;28;20046;-81
2023/01/23 06:45:11;;;;;;;52.45;45.00;;;;;;;5.75;100.00;102466.19;5015022;28;20665;-80
2023/01/23 06:47:55;;;;;;;52.10;46.65;;;;;;;5.98;100.00;102466.88;5026853;28;20049;-82
2023/01/23 06:50:35;;;;;;;54.05;48.22;;;;;;;5.94;100.00;102471.56;5015030;28;20049;-82
2023/01/23 06:53:14;;;;;;;54.25;48.75;;;;;;;5.46;100.00;102476.56;5015067;28;20042;-81
2023/01/23 06:55:52;;;;;;;53.50;47.85;;;;;;;5.58;100.00;102478.16;5015260;28;20050;-80
2023/01/23 06:58:31;;;;;;;55.70;49.35;;;;;;;5.31;100.00;102476.06;5009907;28;20050;-82
2023/01/23 07:00:58;;;;;;;49.45;44.78;;;;;;;5.90;100.00;102475.44;5014212;28;20100;-81
2023/01/23 07:03:27;;;;;;;48.38;43.58;;;;;;;5.12;100.00;102476.75;5014802;28;20100;-81
2023/01/23 07:05:54;;;;;;;53.33;47.95;;;;;;;5.57;100.00;102480.91;5012263;28;20046;-82
2023/01/23 07:09:07;;;;;;;50.25;45.38;;;;;;;5.90;100.00;102496.53;5012557;28;20563;-81
2023/01/23 07:11:39;;;;;;;49.60;44.63;;;;;;;5.66;100.00;102493.34;5004087;28;20046;-88
2023/01/23 07:14:06;;;;;;;54.47;48.53;;;;;;;5.15;100.00;102491.47;5013166;28;20053;-81
2023/01/23 07:16:59;;;;;;;53.67;46.28;;;;;;;5.60;100.00;102499.97;5020029;28;20096;-82
2023/01/23 07:19:41;;;;;;;53.50;48.15;;;;;;;5.56;100.00;102501.19;4995027;28;20050;-81
2023/01/23 07:22:19;;;;;;;51.17;46.13;;;;;;;5.61;100.00;102496.38;5020968;28;20037;-81
2023/01/23 07:24:47;;;;;;;49.55;44.83;;;;;;;5.57;100.00;102502.00;5017704;28;20054;-81
2023/01/23 07:27:33;;;;;;;46.33;41.85;;;;;;;5.51;100.00;102500.75;5014084;28;20054;-82
2023/01/23 07:30:25;;;;;;;51.25;46.13;;;;;;;5.05;100.00;102496.66;5027097;28;20491;-82
2023/01/23 07:33:03;;;;;;;49.53;44.53;;;;;;;5.15;100.00;102499.38;5034077;28;20103;-81
2023/01/23 07:35:45;;;;;;;51.35;45.95;;;;;;;5.07;100.00;102496.53;5007141;28;20458;-82
2023/01/23 07:38:22;;;;;;;48.70;43.63;;;;;;;5.55;100.00;102506.59;4998191;28;20046;-81
2023/01/23 07:41:01;;;;;;;50.78;45.90;;;;;;;5.22;100.00;102500.53;5016559;28;20100;-82
2023/01/23 07:43:41;;;;;;;50.60;45.65;;;;;;;5.22;100.00;102503.16;5014000;28;20057;-81
2023/01/23 07:46:19;;;;;;;47.40;42.42;;;;;;;5.24;100.00;102506.53;4994785;28;20054;-81
2023/01/23 07:48:57;;;;;;;47.50;43.28;;;;;;;5.29;100.00;102514.84;5030143;28;20049;-82
2023/01/23 07:51:34;;;;;;;48.67;43.53;;;;;;;5.21;100.00;102509.41;5013213;28;20050;-81
2023/01/23 07:54:09;;;;;;;46.42;41.72;;;;;;;5.30;100.00;102511.28;5023515;28;20057;-81
2023/01/23 07:56:58;;;;;;;47.10;42.55;;;;;;;5.26;100.00;102509.84;5015743;28;21699;-82
2023/01/23 07:59:38;;;;;;;47.25;42.67;;;;;;;5.86;100.00;102503.00;5017824;28;20057;-82
2023/01/23 08:02:17;;;;;;;43.92;40.13;;;;;;;5.73;100.00;102503.22;5013221;28;20112;-81
2023/01/23 08:04:52;;;;;;;40.70;37.28;;;;;;;7.07;100.00;102512.66;5013304;28;20132;-81
2023/01/23 08:07:33;;;;;;;47.92;43.20;;;;;;;5.31;100.00;102507.69;5013477;28;20131;-80
2023/01/23 08:10:00;;;;;;;47.03;42.70;;;;;;;7.34;100.00;102501.38;5013204;28;20054;-81
2023/01/23 08:12:49;;;;;;;47.88;43.72;;;;;;;5.31;100.00;102507.69;5003823;28;20058;-81
2023/01/23 08:15:38;;;;;;;47.35;43.00;;;;;;;5.32;100.00;102511.97;5011314;28;20057;-81
2023/01/23 08:18:11;;;;;;;48.83;44.65;;;;;;;5.36;100.00;102507.31;5006561;28;20473;-81
2023/01/23 08:20:39;;;;;;;47.35;42.95;;;;;;;5.12;100.00;102518.91;5013523;28;20119;-81
2023/01/23 08:23:12;;;;;;;49.47;44.60;;;;;;;5.23;100.00;102525.91;5013147;28;20062;-81
2023/01/23 08:25:46;;;;;;;48.30;43.50;;;;;;;5.32;100.00;102532.22;5005476;28;20050;-82
2023/01/23 08:28:35;;;;;;;45.13;41.13;;;;;;;4.99;100.00;102523.50;5012963;28;20071;-81
2023/01/23 08:31:27;;;;;;;44.67;41.15;;;;;;;5.31;100.00;102536.66;4993538;28;20058;-79
2023/01/23 08:34:04;;;;;;;46.78;42.42;;;;;;;4.87;100.00;102532.38;5011079;28;20100;-79
2023/01/23 08:36:38;;;;;;;45.63;41.65;;;;;;;4.95;100.00;102525.53;5000423;28;20046;-81
2023/01/23 08:39:08;;;;;;;47.42;43.25;;;;;;;5.18;100.00;102530.75;5016378;28;20046;-81
2023/01/23 08:41:36;;;;;;;45.88;42.00;;;;;;;4.82;100.00;102530.97;5012476;28;20050;-82
2023/01/23 08:44:34;;;;;;;45.78;42.13;;;;;;;6.75;100.00;102534.88;5012497;28;20490;-82
2023/01/23 08:47:23;;;;;;;47.55;43.40;;;;;;;5.13;100.00;102544.28;4929014;29;20055;-82
2023/01/23 08:50:03;;;;;;;47.30;43.40;;;;;;;5.83;100.00;102536.72;4988041;28;20145;-80
2023/01/23 08:52:42;;;;;;;48.42;44.17;;;;;;;5.11;100.00;102535.66;4996572;28;20466;-80
2023/01/23 08:55:22;;;;;;;47.08;43.17;;;;;;;5.10;100.00;102539.25;5011742;28;20049;-81
2023/01/23 08:57:58;;;;;;;45.13;41.20;;;;;;;4.94;100.00;102536.22;5011915;28;20468;-80
2023/01/23 09:00:36;;;;;;;46.85;42.60;;;;;;;4.69;100.00;102529.44;5012512;28;20441;-80
2023/01/23 09:03:16;;;;;;;50.22;45.53;;;;;;;5.16;100.00;102528.22;4973463;28;20046;-80
2023/01/23 09:05:55;;;;;;;47.08;42.80;;;;;;;5.79;100.00;102530.06;4974372;28;20055;-80
2023/01/23 09:08:27;;;;;;;47.78;43.42;;;;;;;5.31;100.00;102541.94;4973385;28;20050;-82
2023/01/23 09:11:01;;;;;;;47.80;43.42;;;;;;;4.79;100.00;102533.84;4972825;28;20138;-80
2023/01/23 09:13:31;;;;;;;48.25;43.78;;;;;;;4.81;100.00;102533.72;4970224;28;20071;-80
2023/01/23 09:16:32;;;;;;;47.78;43.30;;;;;;;5.22;100.00;102521.63;4957203;28;20125;-80
2023/01/23 09:18:58;;;;;;;49.15;44.47;;;;;;;4.99;100.00;102524.34;4973118;28;20422;-81
2023/01/23 09:21:55;;;;;;;47.10;42.70;;;;;;;5.25;100.00;102529.25;4973420;28;20047;-82
2023/01/23 09:24:22;;;;;;;53.58;48.38;;;;;;;5.14;100.00;102537.19;4972879;28;20132;-82
2023/01/23 09:26:50;;;;;;;45.20;41.80;;;;;;;7.05;100.00;102523.38;4963646;28;20051;-80
2023/01/23 09:29:44;;;;;;;48.17;44.25;;;;;;;6.56;100.00;102525.09;4969926;28;20055;-80
2023/01/23 09:32:30;;;;;;;49.75;45.35;;;;;;;5.44;100.00;102529.41;4972612;28;20102;-80
2023/01/23 09:35:05;;;;;;;49.45;45.33;;;;;;;5.38;100.00;102523.81;4972888;28;20121;-80
2023/01/23 09:40:26;;;;;;;52.75;47.75;;;;;;;4.90;100.00;102533.00;4956159;28;20046;-81
2023/01/23 09:43:08;;;;;;;46.47;42.40;;;;;;;6.26;100.00;102518.06;4968562;28;20047;-81
2023/01/23 09:45:41;;;;;;;49.25;44.75;;;;;;;5.55;100.00;102522.41;4971438;28;20054;-80
2023/01/23 09:48:23;;;;;;;47.72;43.83;;;;;;;5.76;100.00;102523.22;4972885;28;20055;-81
2023/01/23 09:51:04;;;;;;;47.53;43.17;;;;;;;6.09;100.00;102516.91;4972972;28;20511;-81
2023/01/23 09:53:41;;;;;;;47.93;43.57;;;;;;;5.44;100.00;102520.66;4972703;28;20051;-80
2023/01/23 09:56:28;;;;;;;46.50;42.63;;;;;;;5.56;100.00;102514.34;4958899;28;20047;-81
2023/01/23 09:59:06;;;;;;;46.00;42.17;;;;;;;5.14;100.00;102513.50;4966834;28;20039;-81
2023/01/23 10:01:33;;;;;;;44.58;41.13;;;;;;;4.97;100.00;102514.91;4990422;28;20513;-81
2023/01/23 10:04:18;;;;;;;44.17;40.35;;;;;;;5.92;100.00;102528.03;5005168;28;20104;-81
2023/01/23 10:07:26;;;;;;;45.20;41.38;;;;;;;5.66;100.00;102535.53;5003674;28;20042;-80
2023/01/23 10:10:05;;;;;;;45.33;41.58;;;;;;;4.88;100.00;102524.38;5006233;28;20517;-81
2023/01/23 10:12:44;;;;;;;44.72;41.30;;;;;;;5.18;100.00;102530.75;5009188;28;20148;-81
2023/01/23 10:15:26;;;;;;;47.53;43.63;;;;;;;5.26;100.00;102521.25;5006717;28;20096;-80
2023/01/23 10:18:32;;;;;;;45.28;41.92;;;;;;;5.91;100.00;102518.47;4996485;28;20042;-81
2023/01/23 10:21:39;;;;;;;46.30;42.78;;;;;;;5.33;100.00;102518.94;5014268;28;20054;-82
2023/01/23 10:27:34;;;;;;;47.05;43.22;;;;;;;5.33;100.00;102526.00;4995743;28;20041;-81
2023/01/23 10:30:38;;;;;;;46.90;43.05;;;;;;;4.94;100.00;102523.06;5010205;28;20501;-80
2023/01/23 10:33:30;;;;;;;45.92;41.83;;;;;;;5.51;100.00;102525.31;4999099;28;20109;-80
2023/01/23 10:36:15;;;;;;;44.45;40.97;;;;;;;5.27;100.00;102522.06;5013190;28;20050;-81
2023/01/23 10:38:48;;;;;;;44.05;40.45;;;;;;;5.22;100.00;102521.63;5015172;28;20045;-81
2023/01/23 10:41:21;;;;;;;46.22;42.70;;;;;;;5.12;100.00;102516.28;4997071;28;20052;-80
2023/01/23 10:44:01;;;;;;;45.90;42.30;;;;;;;5.60;100.00;102520.19;5001981;28;20057;-80
2023/01/23 10:46:45;;;;;;;43.35;39.92;;;;;;;4.96;100.00;102513.19;5006551;28;20111;-81
2023/01/23 10:49:28;;;;;;;44.00;40.58;;;;;;;5.30;100.00;102513.91;4995680;28;20108;-81
2023/01/23 10:51:59;;;;;;;43.13;39.70;;;;;;;5.21;100.00;102504.97;5018876;28;20069;-81
2023/01/23 10:54:28;;;;;;;45.50;41.55;;;;;;;5.03;100.00;102509.13;5016071;28;20124;-80
2023/01/23 10:57:23;;;;;;;47.40;43.35;;;;;;;4.94;100.00;102508.09;5007015;28;20104;-80
2023/01/23 10:59:57;;;;;;;46.38;42.45;;;;;;;5.10;100.00;102520.00;5015000;28;20049;-81
2023/01/23 11:02:36;;;;;;;50.63;46.20;;;;;;;5.07;100.00;102514.97;5014709;28;20104;-81
2023/01/23 11:05:38;;;;;;;44.55;41.38;;;;;;;6.42;100.00;102510.50;4997433;28;20526;-81
2023/01/23 11:08:23;;;;;;;47.92;43.92;;;;;;;5.42;100.00;102502.34;5015050;28;20137;-80
2023/01/23 11:10:52;;;;;;;48.80;44.53;;;;;;;5.31;100.00;102501.56;4998000;28;20038;-81
2023/01/23 11:13:31;;;;;;;45.92;42.22;;;;;;;4.95;100.00;102501.00;5015783;28;20054;-81
2023/01/23 11:16:14;;;;;;;46.35;42.53;;;;;;;5.05;100.00;102500.16;4995330;28;20105;-81
2023/01/23 11:18:54;;;;;;;49.08;44.90;;;;;;;4.98;100.00;102503.38;4995925;28;20058;-81
2023/01/23 11:21:34;;;;;;;46.80;42.67;;;;;;;5.48;100.00;102501.00;4996571;28;20109;-80
2023/01/23 11:24:17;;;;;;;47.75;43.55;;;;;;;4.82;100.00;102495.91;5004169;28;20053;-80
2023/01/23 11:26:59;;;;;;;48.63;44.42;;;;;;;5.79;100.00;102498.41;5011952;28;20085;-80
2023/01/23 11:29:52;;;;;;;47.00;43.10;;;;;;;5.68;100.00;102499.31;5001933;28;20104;-83
2023/01/23 11:32:35;;;;;;;45.45;41.80;;;;;;;6.16;100.00;102498.72;4996279;28;20104;-80
2023/01/23 11:35:25;;;;;;;46.00;41.88;;;;;;;6.08;100.00;102490.63;5003990;28;20070;-81
2023/01/23 11:38:16;;;;;;;46.60;42.80;;;;;;;5.09;100.00;102494.63;4995062;28;20120;-81
2023/01/23 11:41:34;;;;;;;49.58;45.67;;;;;;;4.98;100.00;102500.75;5014239;28;20107;-81
2023/01/23 11:44:16;;;;;;;50.70;46.22;;;;;;;4.80;100.00;102493.38;4998728;28;20049;-81
2023/01/23 11:47:20;;;;;;;45.05;41.47;;;;;;;4.80;100.00;102495.19;5012415;28;20105;-80
2023/01/23 11:50:28;;;;;;;45.80;41.58;;;;;;;4.93;100.00;102493.25;5013127;28;20057;-80
2023/01/23 11:53:12;;;;;;;47.13;43.08;;;;;;;5.03;100.00;102499.44;5013976;28;20046;-81
2023/01/23 11:55:59;;;;;;;46.13;42.42;;;;;;;4.75;100.00;102487.69;5005647;28;20477;-81
2023/01/23 11:59:07;;;;;;;48.10;44.10;;;;;;;5.58;100.00;102498.44;5013565;28;20050;-82
2023/01/23 12:01:39;;;;;;;48.67;44.80;;;;;;;4.86;100.00;102496.50;5008961;28;20084;-80
2023/01/23 12:04:39;;;;;;;46.65;42.72;;;;;;;5.07;100.00;102501.81;5012980;28;20049;-80
2023/01/23 12:10:49;;;;;;;49.40;45.00;;;;;;;5.26;100.00;102512.47;5009116;28;20084;-81
2023/01/23 12:13:49;;;;;;;50.60;46.15;;;;;;;5.12;100.00;102515.44;5008873;28;20425;-80
2023/01/23 12:16:57;;;;;;;46.95;43.05;;;;;;;5.25;100.00;102527.47;5001607;28;20099;-81